Monte Santo de Minas, Brazil
Current Conditions -  °F | °C
As of 7:00 AM on Wednesday 26 Nov 2014 (Local Time) from SBRP Reporting Station
Light Rain Light Rain  
Wind Chill: 72°   Ceiling: 1100
Heat Index: 72°   Visibility: 4mi
Dew Point: 68°   Wind: 7mph
Humidity: 88%   Direction: 350°N
Pressure: 29.83"   Gusts: NA
Location:  21.19°S, 46.98°W
Report Text: SBRP 260900Z 35006KT 6000 -RA BKN011 OVC070 22/20 Q1010
Loading
Personal Weather Stations






























Interactive Weather Map New forecast layout! Learn more

10-Day Weather Forecast

Advertisements
Track Severe Weather on mobile